createdAt,value
2022-10-18T00:00:06.884Z,15.73
2022-10-18T00:02:39.448Z,14.84
2022-10-18T00:05:06.477Z,15.38
2022-10-18T00:07:33.374Z,15.76
2022-10-18T00:10:00.391Z,14.58
2022-10-18T00:12:27.067Z,15.32
2022-10-18T00:14:53.759Z,15.51
2022-10-18T00:17:20.375Z,15.04
2022-10-18T00:19:50.304Z,15.04
2022-10-18T00:22:17.220Z,13.52
2022-10-18T00:24:44.737Z,15.26
2022-10-18T00:27:11.488Z,13.22
2022-10-18T00:29:38.141Z,15.43
2022-10-18T00:32:05.430Z,14.86
2022-10-18T00:34:32.061Z,14.16
2022-10-18T00:36:58.578Z,14.86
2022-10-18T00:39:25.389Z,15.37
2022-10-18T00:41:52.347Z,15.57
2022-10-18T00:44:18.908Z,15.56
2022-10-18T00:46:48.535Z,15.62
2022-10-18T00:49:35.639Z,15.35
2022-10-18T00:52:14.197Z,15.75
2022-10-18T00:54:44.360Z,14.88
2022-10-18T00:57:11.901Z,14.91
2022-10-18T00:59:39.846Z,15.83
2022-10-18T01:02:06.906Z,15.85
2022-10-18T01:04:34.599Z,15.90
2022-10-18T01:07:04.245Z,15.87
2022-10-18T01:09:45.142Z,15.94
2022-10-18T01:12:51.640Z,15.61
2022-10-18T01:15:27.791Z,15.84
2022-10-18T01:18:03.434Z,15.98
2022-10-18T01:20:39.186Z,15.97
2022-10-18T01:23:19.945Z,14.55
2022-10-18T01:26:24.543Z,15.01
2022-10-18T01:29:00.645Z,15.87
2022-10-18T01:31:35.322Z,15.88
2022-10-18T01:34:07.755Z,15.26
2022-10-18T01:36:40.384Z,15.88
2022-10-18T01:39:11.919Z,13.80
2022-10-18T01:41:41.693Z,15.12
2022-10-18T01:44:18.966Z,14.85
2022-10-18T01:46:47.071Z,15.81
2022-10-18T01:49:13.832Z,14.99
2022-10-18T01:51:40.571Z,15.58
2022-10-18T01:54:07.278Z,14.96
2022-10-18T01:56:42.716Z,14.89
2022-10-18T01:59:09.438Z,15.88
2022-10-18T02:02:17.161Z,15.74
2022-10-18T02:05:00.952Z,15.18
2022-10-18T02:07:43.675Z,15.95
2022-10-18T02:10:16.219Z,15.29
2022-10-18T02:12:46.657Z,12.88
2022-10-18T02:15:17.599Z,14.73
2022-10-18T02:17:46.730Z,16.01
2022-10-18T02:20:17.827Z,15.93
2022-10-18T02:22:46.020Z,15.70
2022-10-18T02:25:24.286Z,13.39
2022-10-18T02:27:54.735Z,15.54
2022-10-18T02:30:28.142Z,15.77
2022-10-18T02:33:04.353Z,14.75
2022-10-18T02:35:42.106Z,15.95
2022-10-18T02:38:11.493Z,15.43
2022-10-18T02:40:38.273Z,15.54
2022-10-18T02:43:07.000Z,15.50
2022-10-18T02:45:33.906Z,15.80
2022-10-18T02:48:00.509Z,14.98
2022-10-18T02:50:27.116Z,14.18
2022-10-18T02:52:54.435Z,14.32
2022-10-18T02:55:21.126Z,13.91
2022-10-18T02:57:47.988Z,15.87
2022-10-18T03:00:15.014Z,15.49
2022-10-18T03:02:41.622Z,13.16
2022-10-18T03:05:08.973Z,16.05
2022-10-18T03:07:35.688Z,16.04
2022-10-18T03:10:02.145Z,12.91
2022-10-18T03:12:32.390Z,15.61
2022-10-18T03:14:58.986Z,16.09
2022-10-18T03:17:25.537Z,16.06
2022-10-18T03:19:52.048Z,15.60
2022-10-18T03:22:18.734Z,15.11
2022-10-18T03:24:45.516Z,16.00
2022-10-18T03:27:13.755Z,15.80
2022-10-18T03:29:40.691Z,15.86
2022-10-18T03:32:08.096Z,14.24
2022-10-18T03:34:34.732Z,15.18
2022-10-18T03:37:04.669Z,15.08
2022-10-18T03:39:32.183Z,15.48
2022-10-18T03:41:58.822Z,15.41
2022-10-18T03:44:25.450Z,14.77
2022-10-18T03:46:51.973Z,15.90
2022-10-18T03:49:18.507Z,15.07
2022-10-18T03:51:45.132Z,15.46
2022-10-18T03:54:11.734Z,14.57
2022-10-18T03:56:38.289Z,15.41
2022-10-18T03:59:05.513Z,15.76
2022-10-18T04:01:32.217Z,14.17
2022-10-18T04:03:58.942Z,14.65
2022-10-18T04:06:25.483Z,14.82
2022-10-18T04:08:52.301Z,15.35
2022-10-18T04:11:18.866Z,14.77
2022-10-18T04:13:46.475Z,15.67
2022-10-18T04:16:13.095Z,13.83
2022-10-18T04:18:43.019Z,14.12
2022-10-18T04:21:09.542Z,15.49
2022-10-18T04:23:38.709Z,15.36
2022-10-18T04:26:06.039Z,15.87
2022-10-18T04:28:33.750Z,14.30
2022-10-18T04:31:00.452Z,15.54
2022-10-18T04:33:27.803Z,15.82
2022-10-18T04:35:54.385Z,15.06
2022-10-18T04:38:20.949Z,16.02
2022-10-18T04:40:47.501Z,15.74
2022-10-18T04:43:14.135Z,15.95
2022-10-18T04:45:40.671Z,16.06
2022-10-18T04:48:09.344Z,15.73
2022-10-18T04:50:35.977Z,15.62
2022-10-18T04:53:14.030Z,16.16
2022-10-18T04:55:46.789Z,15.61
2022-10-18T04:58:13.494Z,15.08
2022-10-18T05:00:40.702Z,16.16
2022-10-18T05:03:08.769Z,15.85
2022-10-18T05:05:49.730Z,13.15
2022-10-18T05:08:21.901Z,16.16
2022-10-18T05:10:49.013Z,15.44
2022-10-18T05:13:15.620Z,14.75
2022-10-18T05:15:42.403Z,14.84
2022-10-18T05:18:10.817Z,15.76
2022-10-18T05:20:37.352Z,13.03
2022-10-18T05:23:03.977Z,13.65
2022-10-18T05:25:30.724Z,14.08
2022-10-18T05:27:57.307Z,15.69
2022-10-18T05:30:23.883Z,13.95
2022-10-18T05:32:52.026Z,15.15
2022-10-18T05:35:18.560Z,14.90
2022-10-18T05:37:45.139Z,15.73
2022-10-18T05:40:13.824Z,15.14
2022-10-18T05:42:40.475Z,13.54
2022-10-18T05:45:07.573Z,16.14
2022-10-18T05:50:01.750Z,15.02
2022-10-18T05:52:28.336Z,15.95
2022-10-18T05:54:54.990Z,15.70
2022-10-18T05:57:21.647Z,15.05
2022-10-18T05:59:48.218Z,14.55
2022-10-18T06:02:15.611Z,15.20
2022-10-18T06:04:42.231Z,16.09
2022-10-18T06:07:12.615Z,15.11
2022-10-18T06:09:39.266Z,15.74
2022-10-18T06:12:06.217Z,15.16
2022-10-18T06:14:32.875Z,14.55
2022-10-18T06:17:00.033Z,14.03
2022-10-18T06:19:26.540Z,16.00
2022-10-18T06:21:53.080Z,15.00
2022-10-18T06:24:22.886Z,16.01
2022-10-18T06:26:49.977Z,15.34
2022-10-18T06:29:19.144Z,15.97
2022-10-18T06:31:46.176Z,14.69
2022-10-18T06:34:12.804Z,15.69
2022-10-18T06:36:39.444Z,16.21
2022-10-18T06:39:07.053Z,15.21
2022-10-18T06:41:33.571Z,15.42
2022-10-18T06:44:19.060Z,14.33
2022-10-18T06:46:48.128Z,16.27
2022-10-18T06:49:18.972Z,16.26
2022-10-18T06:51:47.091Z,14.89
2022-10-18T06:54:18.146Z,14.80
2022-10-18T06:56:45.613Z,14.45
2022-10-18T06:59:12.188Z,16.39
2022-10-18T07:01:39.021Z,15.46
2022-10-18T07:04:05.936Z,15.50
2022-10-18T07:06:33.549Z,16.37
2022-10-18T07:09:02.900Z,15.72
2022-10-18T07:11:29.656Z,14.71
2022-10-18T07:14:03.235Z,16.43
2022-10-18T07:16:31.896Z,15.81
2022-10-18T07:18:58.431Z,16.09
2022-10-18T07:21:27.096Z,16.48
2022-10-18T07:23:53.894Z,14.02
2022-10-18T07:26:25.019Z,15.68
2022-10-18T07:28:56.245Z,16.12
2022-10-18T07:31:24.135Z,15.42
2022-10-18T07:33:51.484Z,15.61
2022-10-18T07:36:18.264Z,15.41
2022-10-18T07:38:44.905Z,14.87
2022-10-18T07:41:13.542Z,16.55
2022-10-18T07:43:48.730Z,15.95
2022-10-18T07:46:16.033Z,15.45
2022-10-18T07:48:42.937Z,15.91
2022-10-18T07:51:11.900Z,16.84
2022-10-18T07:53:39.106Z,13.85
2022-10-18T07:56:11.489Z,14.99
2022-10-18T07:58:38.053Z,15.16
2022-10-18T08:01:06.523Z,16.95
2022-10-18T08:03:33.727Z,15.40
2022-10-18T08:06:00.402Z,16.81
2022-10-18T08:08:27.475Z,16.48
2022-10-18T08:10:55.508Z,14.74
2022-10-18T08:13:22.326Z,14.88
2022-10-18T08:15:48.944Z,16.06
2022-10-18T08:18:15.538Z,16.58
2022-10-18T08:20:45.821Z,16.88
2022-10-18T08:23:13.257Z,14.57
2022-10-18T08:25:40.244Z,17.04
2022-10-18T08:28:07.890Z,16.45
2022-10-18T08:30:35.424Z,15.59
2022-10-18T08:33:04.071Z,16.32
2022-10-18T08:35:31.798Z,16.63
2022-10-18T08:37:59.291Z,16.15
2022-10-18T08:40:30.277Z,17.32
2022-10-18T08:43:10.527Z,16.56
2022-10-18T08:45:42.775Z,14.88
2022-10-18T08:48:42.278Z,17.77
2022-10-18T08:51:27.049Z,16.92
2022-10-18T08:54:07.565Z,17.79
2022-10-18T08:56:35.122Z,17.43
2022-10-18T08:59:06.453Z,16.71
2022-10-18T09:01:58.858Z,16.58
2022-10-18T09:04:32.895Z,16.58
2022-10-18T09:07:10.161Z,16.50
2022-10-18T09:09:50.966Z,16.75
2022-10-18T09:12:39.325Z,17.59
2022-10-18T09:15:32.545Z,17.60
2022-10-18T09:18:12.919Z,17.61
2022-10-18T09:20:52.683Z,17.59
2022-10-18T09:23:47.416Z,17.31
2022-10-18T09:26:21.078Z,17.59
2022-10-18T09:29:26.168Z,17.53
2022-10-18T09:32:04.556Z,17.58
2022-10-18T09:34:43.127Z,16.55
2022-10-18T09:37:14.659Z,17.82
2022-10-18T09:39:42.128Z,17.03
2022-10-18T09:42:16.091Z,18.08
2022-10-18T09:44:48.885Z,17.01
2022-10-18T09:47:25.314Z,18.19
2022-10-18T09:50:02.725Z,17.76
2022-10-18T09:52:42.392Z,17.73
2022-10-18T09:55:17.300Z,18.35
2022-10-18T09:57:49.250Z,18.26
2022-10-18T10:00:22.688Z,18.94
2022-10-18T10:02:49.330Z,19.05
2022-10-18T10:05:16.130Z,19.12
2022-10-18T10:07:47.843Z,18.09
2022-10-18T10:10:26.131Z,18.39
2022-10-18T10:13:05.090Z,19.01
2022-10-18T10:15:37.078Z,18.22
2022-10-18T10:18:30.181Z,16.75
2022-10-18T10:21:01.052Z,17.14
2022-10-18T10:23:36.184Z,17.90
2022-10-18T10:26:32.154Z,18.26
2022-10-18T10:28:58.903Z,17.09
2022-10-18T10:31:25.427Z,18.30
2022-10-18T10:34:20.170Z,16.74
2022-10-18T10:36:52.301Z,17.78
2022-10-18T10:39:22.159Z,16.94
2022-10-18T10:41:54.104Z,18.71
2022-10-18T10:44:27.072Z,18.79
2022-10-18T10:46:54.975Z,17.86
2022-10-18T10:49:40.238Z,16.87
2022-10-18T10:52:37.110Z,16.16
2022-10-18T10:55:30.433Z,19.18
2022-10-18T10:57:55.471Z,19.20
2022-10-18T11:00:44.382Z,19.11
2022-10-18T11:03:27.738Z,18.65
2022-10-18T11:05:57.993Z,17.98
2022-10-18T11:08:29.594Z,18.83
2022-10-18T11:11:01.245Z,18.27
2022-10-18T11:13:44.415Z,18.95
2022-10-18T11:16:21.704Z,18.86
2022-10-18T11:18:51.218Z,17.32
2022-10-18T11:21:25.772Z,17.91
2022-10-18T11:23:52.804Z,17.76
2022-10-18T11:26:36.962Z,18.56
2022-10-18T11:29:35.574Z,19.94
2022-10-18T11:32:21.214Z,20.10
2022-10-18T11:35:19.754Z,20.36
2022-10-18T11:38:06.198Z,20.37
2022-10-18T11:40:52.181Z,19.63
2022-10-18T11:44:02.283Z,20.05
2022-10-18T11:46:49.929Z,18.54
2022-10-18T11:49:23.197Z,19.65
2022-10-18T11:52:33.664Z,17.56
2022-10-18T11:55:10.843Z,20.07
2022-10-18T11:58:11.027Z,20.03
2022-10-18T12:00:50.462Z,19.37
2022-10-18T12:03:34.555Z,21.19
2022-10-18T12:06:06.818Z,21.20
2022-10-18T12:08:57.609Z,22.06
2022-10-18T12:11:30.763Z,22.20
2022-10-18T12:14:01.247Z,21.07
2022-10-18T12:16:50.400Z,22.97
2022-10-18T12:19:27.014Z,21.96
2022-10-18T12:21:57.549Z,21.57
2022-10-18T12:24:28.713Z,23.29
2022-10-18T12:27:00.558Z,22.97
2022-10-18T12:29:40.088Z,23.23
2022-10-18T12:32:16.206Z,23.46
2022-10-18T12:34:46.099Z,22.96
2022-10-18T12:37:21.664Z,23.13
2022-10-18T12:40:12.121Z,22.77
2022-10-18T12:42:44.041Z,22.37
2022-10-18T12:45:13.783Z,22.96
2022-10-18T12:47:40.781Z,22.35
2022-10-18T12:50:31.058Z,22.71
2022-10-18T12:53:10.182Z,22.91
2022-10-18T12:55:40.831Z,21.09
2022-10-18T12:58:13.469Z,22.35
2022-10-18T13:00:43.165Z,22.04
2022-10-18T13:03:12.600Z,20.95
2022-10-18T13:05:56.968Z,21.41
2022-10-18T13:08:38.099Z,21.44
2022-10-18T13:11:10.520Z,21.64
2022-10-18T13:14:02.142Z,21.57
2022-10-18T13:16:51.190Z,21.43
2022-10-18T13:19:21.688Z,21.77
2022-10-18T13:22:20.476Z,21.92
2022-10-18T13:25:46.693Z,21.35
2022-10-18T13:28:37.406Z,21.06
2022-10-18T13:31:23.583Z,20.79
2022-10-18T13:33:50.765Z,20.32
2022-10-18T13:36:22.562Z,20.50
2022-10-18T13:38:50.190Z,20.51
2022-10-18T13:43:52.545Z,20.57
2022-10-18T13:46:34.745Z,20.61
2022-10-18T13:49:28.335Z,20.39
2022-10-18T13:52:28.506Z,20.42
2022-10-18T13:55:22.771Z,20.34
2022-10-18T13:58:15.736Z,19.29
2022-10-18T14:01:00.197Z,19.10
2022-10-18T14:03:55.767Z,20.13
2022-10-18T14:06:38.637Z,18.33
2022-10-18T14:09:26.076Z,20.01
2022-10-18T14:12:30.792Z,19.49
2022-10-18T14:15:15.800Z,19.47
2022-10-18T14:17:52.201Z,19.66
2022-10-18T14:20:49.066Z,19.41
2022-10-18T14:23:48.210Z,19.32
2022-10-18T14:26:19.735Z,17.34
2022-10-18T14:29:03.048Z,18.93
2022-10-18T14:31:30.207Z,18.99
2022-10-18T14:33:58.882Z,18.66
2022-10-18T14:36:40.932Z,17.95
2022-10-18T14:39:19.075Z,18.90
2022-10-18T14:41:54.227Z,18.85
2022-10-18T14:44:26.429Z,18.04
2022-10-18T14:46:58.921Z,18.62
2022-10-18T14:49:25.596Z,18.05
2022-10-18T14:51:55.037Z,18.22
2022-10-18T14:54:37.801Z,16.66
2022-10-18T14:57:06.929Z,17.77
2022-10-18T14:59:52.262Z,16.75
2022-10-18T15:02:26.940Z,17.11
2022-10-18T15:05:10.656Z,18.20
2022-10-18T15:07:37.472Z,18.12
2022-10-18T15:10:05.419Z,17.22
2022-10-18T15:13:08.251Z,17.45
2022-10-18T15:15:32.873Z,17.87
2022-10-18T15:18:00.615Z,16.52
2022-10-18T15:20:31.836Z,15.65
2022-10-18T15:23:23.800Z,17.64
2022-10-18T15:25:52.837Z,17.07
2022-10-18T15:28:50.280Z,17.47
2022-10-18T15:31:26.762Z,17.36
2022-10-18T15:34:07.665Z,16.45
2022-10-18T15:36:35.284Z,17.11
2022-10-18T15:39:16.528Z,17.08
2022-10-18T15:41:48.879Z,16.26
2022-10-18T15:44:36.054Z,16.97
2022-10-18T15:47:11.697Z,16.93
2022-10-18T15:49:45.248Z,16.87
2022-10-18T15:52:40.692Z,16.83
2022-10-18T15:55:29.115Z,16.74
2022-10-18T15:58:39.296Z,16.52
2022-10-18T16:01:15.381Z,14.77
2022-10-18T16:03:43.036Z,14.49
2022-10-18T16:06:13.435Z,16.42
2022-10-18T16:08:48.751Z,15.99
2022-10-18T16:11:18.144Z,16.32
2022-10-18T16:13:45.115Z,15.77
2022-10-18T16:16:19.400Z,15.54
2022-10-18T16:18:47.476Z,16.04
2022-10-18T16:21:21.258Z,15.95
2022-10-18T16:23:49.240Z,15.17
2022-10-18T16:26:17.008Z,13.30
2022-10-18T16:28:45.487Z,14.00
2022-10-18T16:31:16.843Z,15.47
2022-10-18T16:33:43.997Z,15.00
2022-10-18T16:36:19.658Z,13.41
2022-10-18T16:38:47.412Z,14.57
2022-10-18T16:41:15.802Z,13.68
2022-10-18T16:43:47.023Z,13.48
2022-10-18T16:46:18.725Z,13.91
2022-10-18T16:48:46.664Z,12.98
2022-10-18T16:51:13.234Z,14.05
2022-10-18T16:53:39.849Z,13.68
2022-10-18T16:56:33.113Z,12.76
2022-10-18T16:59:00.228Z,14.04
2022-10-18T17:01:26.996Z,12.91
2022-10-18T17:03:56.138Z,12.50
2022-10-18T17:06:26.327Z,14.19
2022-10-18T17:08:54.596Z,11.80
2022-10-18T17:11:27.268Z,14.20
2022-10-18T17:13:55.078Z,14.12
2022-10-18T17:16:24.718Z,14.14
2022-10-18T17:18:51.729Z,13.64
2022-10-18T17:21:18.340Z,12.33
2022-10-18T17:23:45.770Z,11.85
2022-10-18T17:26:28.883Z,12.58
2022-10-18T17:29:05.680Z,13.82
2022-10-18T17:31:34.278Z,11.92
2022-10-18T17:34:01.890Z,12.57
2022-10-18T17:36:32.346Z,13.71
2022-10-18T17:38:59.116Z,13.11
2022-10-18T17:41:26.470Z,13.60
2022-10-18T17:43:53.310Z,11.93
2022-10-18T17:46:20.276Z,11.09
2022-10-18T17:48:47.134Z,13.36
2022-10-18T17:51:16.577Z,13.27
2022-10-18T17:53:43.496Z,13.21
2022-10-18T17:56:11.238Z,11.87
2022-10-18T17:58:37.829Z,12.55
2022-10-18T18:01:16.982Z,12.85
2022-10-18T18:03:44.049Z,10.77
2022-10-18T18:06:20.293Z,12.93
2022-10-18T18:08:47.769Z,11.83
2022-10-18T18:11:15.272Z,10.44
2022-10-18T18:13:42.508Z,12.58
2022-10-18T18:16:14.007Z,11.19
2022-10-18T18:18:41.027Z,10.69
2022-10-18T18:21:07.670Z,11.05
2022-10-18T18:23:35.769Z,10.17
2022-10-18T18:26:02.460Z,11.63
2022-10-18T18:28:30.149Z,9.23
2022-10-18T18:30:56.987Z,10.69
2022-10-18T18:33:23.595Z,11.42
2022-10-18T18:35:57.744Z,11.55
2022-10-18T18:38:25.620Z,12.13
2022-10-18T18:41:07.603Z,12.03
2022-10-18T18:43:34.895Z,11.83
2022-10-18T18:46:01.810Z,10.44
2022-10-18T18:48:31.438Z,10.26
2022-10-18T18:50:57.992Z,10.41
2022-10-18T18:53:29.701Z,11.71
2022-10-18T18:56:05.150Z,11.87
2022-10-18T18:58:32.400Z,10.73
2022-10-18T19:00:58.990Z,11.24
2022-10-18T19:03:26.333Z,10.98
2022-10-18T19:06:02.417Z,10.40
2022-10-18T19:08:31.753Z,9.53
2022-10-18T19:10:58.294Z,9.91
2022-10-18T19:13:25.599Z,9.83
2022-10-18T19:15:52.301Z,10.44
2022-10-18T19:18:23.178Z,8.30
2022-10-18T19:20:50.674Z,11.23
2022-10-18T19:23:17.299Z,10.16
2022-10-18T19:25:43.986Z,10.36
2022-10-18T19:28:10.577Z,8.94
2022-10-18T19:30:37.781Z,10.26
2022-10-18T19:33:04.691Z,10.22
2022-10-18T19:35:31.362Z,11.17
2022-10-18T19:37:57.914Z,10.02
2022-10-18T19:40:24.584Z,9.66
2022-10-18T19:42:51.177Z,10.68
2022-10-18T19:45:17.869Z,10.45
2022-10-18T19:47:44.443Z,8.36
2022-10-18T19:50:11.158Z,10.36
2022-10-18T19:52:37.873Z,8.08
2022-10-18T19:55:05.046Z,9.07
2022-10-18T19:57:31.593Z,9.72
2022-10-18T20:00:00.786Z,10.32
2022-10-18T20:02:38.297Z,10.96
2022-10-18T20:05:05.377Z,10.68
2022-10-18T20:07:32.035Z,8.62
2022-10-18T20:09:59.928Z,10.91
2022-10-18T20:12:26.910Z,9.44
2022-10-18T20:14:54.079Z,7.53
2022-10-18T20:17:20.927Z,10.01
2022-10-18T20:19:48.646Z,10.64
2022-10-18T20:22:15.505Z,10.73
2022-10-18T20:24:42.368Z,8.89
2022-10-18T20:27:09.343Z,8.93
2022-10-18T20:29:36.087Z,10.37
2022-10-18T20:32:02.784Z,9.32
2022-10-18T20:34:29.525Z,9.76
2022-10-18T20:36:56.182Z,8.35
2022-10-18T20:39:22.917Z,10.51
2022-10-18T20:41:49.664Z,10.04
2022-10-18T20:44:19.453Z,7.93
2022-10-18T20:46:46.985Z,10.54
2022-10-18T20:49:15.847Z,9.36
2022-10-18T20:51:42.967Z,9.65
2022-10-18T20:54:10.892Z,10.54
2022-10-18T20:56:40.140Z,8.58
2022-10-18T20:59:09.690Z,10.64
2022-10-18T21:01:38.611Z,8.85
2022-10-18T21:04:07.985Z,10.51
2022-10-18T21:06:41.135Z,8.82
2022-10-18T21:09:11.994Z,10.44
2022-10-18T21:11:41.782Z,7.60
2022-10-18T21:14:12.816Z,10.57
2022-10-18T21:16:39.681Z,10.59
2022-10-18T21:19:08.802Z,9.92
2022-10-18T21:21:35.794Z,10.52
2022-10-18T21:24:06.869Z,9.23
2022-10-18T21:26:35.359Z,10.40
2022-10-18T21:29:03.421Z,9.01
2022-10-18T21:31:33.793Z,9.16
2022-10-18T21:34:05.929Z,9.82
2022-10-18T21:36:35.244Z,10.24
2022-10-18T21:39:07.290Z,9.42
2022-10-18T21:41:34.767Z,10.14
2022-10-18T21:44:04.469Z,8.93
2022-10-18T21:46:34.848Z,7.46
2022-10-18T21:49:01.511Z,9.80
2022-10-18T21:51:29.125Z,10.06
2022-10-18T21:53:58.189Z,7.34
2022-10-18T21:56:30.652Z,8.05
2022-10-18T21:58:57.948Z,9.82
2022-10-18T22:01:27.941Z,8.83
2022-10-18T22:03:56.619Z,9.73
2022-10-18T22:06:24.366Z,8.82
2022-10-18T22:08:53.905Z,9.20
2022-10-18T22:11:24.386Z,7.74
2022-10-18T22:13:52.535Z,8.47
2022-10-18T22:16:19.664Z,6.46
2022-10-18T22:18:48.284Z,7.35
2022-10-18T22:21:17.164Z,9.39
2022-10-18T22:23:51.179Z,9.38
2022-10-18T22:26:19.773Z,7.89
2022-10-18T22:28:55.370Z,7.68
2022-10-18T22:31:25.323Z,8.86
2022-10-18T22:33:57.407Z,7.60
2022-10-18T22:36:24.886Z,9.58
2022-10-18T22:38:51.732Z,8.67
2022-10-18T22:41:19.874Z,9.51
2022-10-18T22:43:47.690Z,9.49
2022-10-18T22:46:15.227Z,9.07
2022-10-18T22:48:42.449Z,9.09
2022-10-18T22:51:11.147Z,8.85
2022-10-18T22:53:39.805Z,7.15
2022-10-18T22:56:11.211Z,9.32
2022-10-18T22:58:37.798Z,9.33
2022-10-18T23:01:07.845Z,7.13
2022-10-18T23:03:36.682Z,7.98
2022-10-18T23:06:03.751Z,9.20
2022-10-18T23:08:32.564Z,9.48
2022-10-18T23:11:00.326Z,9.20
2022-10-18T23:13:28.063Z,9.34
2022-10-18T23:16:04.369Z,8.79
2022-10-18T23:18:32.495Z,8.38
2022-10-18T23:21:07.385Z,9.33
2022-10-18T23:23:35.782Z,7.48
2022-10-18T23:26:04.738Z,9.21
2022-10-18T23:28:37.093Z,7.93
2022-10-18T23:31:18.936Z,9.05
2022-10-18T23:33:48.794Z,7.67
2022-10-18T23:36:16.103Z,7.60
2022-10-18T23:38:43.793Z,8.82
2022-10-18T23:41:13.375Z,8.26
2022-10-18T23:43:40.767Z,6.60
2022-10-18T23:46:07.570Z,8.65
2022-10-18T23:48:34.327Z,8.23
2022-10-18T23:51:02.219Z,7.74
2022-10-18T23:53:29.216Z,8.73
2022-10-18T23:55:58.597Z,7.51
2022-10-18T23:58:26.464Z,7.55
